sensor_id;sensor_type;location;lat;lon;timestamp;temperature;humidity
67974;DHT22;54756;51.140;6.952;2022-12-18T00:01:46;-4.60;76.50
67974;DHT22;54756;51.140;6.952;2022-12-18T00:03:47;-4.60;76.30
67974;DHT22;54756;51.140;6.952;2022-12-18T00:05:51;-4.60;76.10
67974;DHT22;54756;51.140;6.952;2022-12-18T00:07:52;-4.60;76.00
67974;DHT22;54756;51.140;6.952;2022-12-18T00:09:52;-4.70;76.00
67974;DHT22;54756;51.140;6.952;2022-12-18T00:11:53;-4.70;76.10
67974;DHT22;54756;51.140;6.952;2022-12-18T00:13:55;-4.70;76.30
67974;DHT22;54756;51.140;6.952;2022-12-18T00:16:05;-4.80;76.30
67974;DHT22;54756;51.140;6.952;2022-12-18T00:18:06;-4.80;76.60
67974;DHT22;54756;51.140;6.952;2022-12-18T00:20:07;-4.80;77.00
67974;DHT22;54756;51.140;6.952;2022-12-18T00:22:08;-4.80;77.10
67974;DHT22;54756;51.140;6.952;2022-12-18T00:24:10;-4.80;77.20
67974;DHT22;54756;51.140;6.952;2022-12-18T00:26:16;-4.80;77.60
67974;DHT22;54756;51.140;6.952;2022-12-18T00:28:17;-4.70;77.80
67974;DHT22;54756;51.140;6.952;2022-12-18T00:30:18;-4.70;77.70
67974;DHT22;54756;51.140;6.952;2022-12-18T00:32:18;-4.70;77.20
67974;DHT22;54756;51.140;6.952;2022-12-18T00:34:18;-4.70;76.90
67974;DHT22;54756;51.140;6.952;2022-12-18T00:36:24;-4.80;76.10
67974;DHT22;54756;51.140;6.952;2022-12-18T00:38:25;-4.80;75.40
67974;DHT22;54756;51.140;6.952;2022-12-18T00:40:25;-4.90;75.30
67974;DHT22;54756;51.140;6.952;2022-12-18T00:42:26;-5.00;75.60
67974;DHT22;54756;51.140;6.952;2022-12-18T00:44:45;-5.00;76.30
67974;DHT22;54756;51.140;6.952;2022-12-18T00:46:47;-5.00;76.80
67974;DHT22;54756;51.140;6.952;2022-12-18T00:48:48;-5.10;76.60
67974;DHT22;54756;51.140;6.952;2022-12-18T00:50:49;-5.10;76.00
67974;DHT22;54756;51.140;6.952;2022-12-18T00:52:50;-5.20;75.10
67974;DHT22;54756;51.140;6.952;2022-12-18T00:54:50;-5.30;74.90
67974;DHT22;54756;51.140;6.952;2022-12-18T00:56:51;-5.40;75.00
67974;DHT22;54756;51.140;6.952;2022-12-18T00:58:51;-5.40;75.70
67974;DHT22;54756;51.140;6.952;2022-12-18T01:00:52;-5.50;76.10
67974;DHT22;54756;51.140;6.952;2022-12-18T01:02:52;-5.50;76.20
67974;DHT22;54756;51.140;6.952;2022-12-18T01:04:53;-5.50;76.10
67974;DHT22;54756;51.140;6.952;2022-12-18T01:06:53;-5.60;76.70
67974;DHT22;54756;51.140;6.952;2022-12-18T01:08:54;-5.60;76.70
67974;DHT22;54756;51.140;6.952;2022-12-18T01:10:55;-5.70;76.30
67974;DHT22;54756;51.140;6.952;2022-12-18T01:12:55;-5.70;76.10
67974;DHT22;54756;51.140;6.952;2022-12-18T01:14:56;-5.80;76.60
67974;DHT22;54756;51.140;6.952;2022-12-18T01:16:57;-5.80;75.80
67974;DHT22;54756;51.140;6.952;2022-12-18T01:18:57;-5.90;75.70
67974;DHT22;54756;51.140;6.952;2022-12-18T01:20:58;-6.00;75.60
67974;DHT22;54756;51.140;6.952;2022-12-18T01:22:58;-6.00;76.00
67974;DHT22;54756;51.140;6.952;2022-12-18T01:24:59;-6.00;76.20
67974;DHT22;54756;51.140;6.952;2022-12-18T01:26:59;-6.10;76.30
67974;DHT22;54756;51.140;6.952;2022-12-18T01:29:00;-6.00;77.90
67974;DHT22;54756;51.140;6.952;2022-12-18T01:31:22;-6.00;79.10
67974;DHT22;54756;51.140;6.952;2022-12-18T01:33:23;-5.90;80.20
67974;DHT22;54756;51.140;6.952;2022-12-18T01:35:24;-5.90;80.10
67974;DHT22;54756;51.140;6.952;2022-12-18T01:37:24;-5.90;80.20
67974;DHT22;54756;51.140;6.952;2022-12-18T01:39:25;-5.80;80.60
67974;DHT22;54756;51.140;6.952;2022-12-18T01:41:29;-5.80;80.90
67974;DHT22;54756;51.140;6.952;2022-12-18T01:43:55;-5.70;80.80
67974;DHT22;54756;51.140;6.952;2022-12-18T01:45:59;-5.60;81.20
67974;DHT22;54756;51.140;6.952;2022-12-18T01:48:02;-5.60;81.10
67974;DHT22;54756;51.140;6.952;2022-12-18T01:50:34;-5.50;81.00
67974;DHT22;54756;51.140;6.952;2022-12-18T01:52:37;-5.50;80.90
67974;DHT22;54756;51.140;6.952;2022-12-18T01:54:39;-5.40;80.80
67974;DHT22;54756;51.140;6.952;2022-12-18T01:56:40;-5.40;80.80
67974;DHT22;54756;51.140;6.952;2022-12-18T02:01:13;-5.20;80.90
67974;DHT22;54756;51.140;6.952;2022-12-18T02:03:14;-5.20;80.60
67974;DHT22;54756;51.140;6.952;2022-12-18T02:05:45;-5.10;80.20
67974;DHT22;54756;51.140;6.952;2022-12-18T02:10:18;-5.10;79.40
67974;DHT22;54756;51.140;6.952;2022-12-18T02:12:23;-5.10;78.90
67974;DHT22;54756;51.140;6.952;2022-12-18T02:17:10;-5.10;79.00
67974;DHT22;54756;51.140;6.952;2022-12-18T02:21:54;-5.10;79.00
67974;DHT22;54756;51.140;6.952;2022-12-18T02:24:33;-5.00;79.30
67974;DHT22;54756;51.140;6.952;2022-12-18T02:26:38;-5.00;79.30
67974;DHT22;54756;51.140;6.952;2022-12-18T02:30:53;-4.90;79.10
67974;DHT22;54756;51.140;6.952;2022-12-18T02:32:57;-4.90;79.10
67974;DHT22;54756;51.140;6.952;2022-12-18T02:35:01;-4.90;78.90
67974;DHT22;54756;51.140;6.952;2022-12-18T02:37:05;-4.80;78.60
67974;DHT22;54756;51.140;6.952;2022-12-18T02:39:10;-4.80;78.40
67974;DHT22;54756;51.140;6.952;2022-12-18T02:41:13;-4.90;78.30
67974;DHT22;54756;51.140;6.952;2022-12-18T02:43:15;-4.90;78.40
67974;DHT22;54756;51.140;6.952;2022-12-18T02:45:16;-4.80;78.50
67974;DHT22;54756;51.140;6.952;2022-12-18T02:47:19;-4.80;78.30
67974;DHT22;54756;51.140;6.952;2022-12-18T02:49:32;-4.80;78.20
67974;DHT22;54756;51.140;6.952;2022-12-18T02:51:50;-4.80;78.30
67974;DHT22;54756;51.140;6.952;2022-12-18T02:56:31;-4.80;78.20
67974;DHT22;54756;51.140;6.952;2022-12-18T02:58:51;-4.80;78.00
67974;DHT22;54756;51.140;6.952;2022-12-18T03:03:38;-4.70;78.00
67974;DHT22;54756;51.140;6.952;2022-12-18T03:05:54;-4.70;78.20
67974;DHT22;54756;51.140;6.952;2022-12-18T03:08:01;-4.70;77.60
67974;DHT22;54756;51.140;6.952;2022-12-18T03:10:05;-4.80;78.30
67974;DHT22;54756;51.140;6.952;2022-12-18T03:14:25;-4.80;77.30
67974;DHT22;54756;51.140;6.952;2022-12-18T03:16:31;-4.80;77.00
67974;DHT22;54756;51.140;6.952;2022-12-18T03:18:59;-4.90;76.50
67974;DHT22;54756;51.140;6.952;2022-12-18T03:21:05;-5.00;75.80
67974;DHT22;54756;51.140;6.952;2022-12-18T03:23:12;-5.10;75.10
67974;DHT22;54756;51.140;6.952;2022-12-18T03:25:16;-5.20;74.80
67974;DHT22;54756;51.140;6.952;2022-12-18T03:27:18;-5.40;74.30
67974;DHT22;54756;51.140;6.952;2022-12-18T03:31:32;-5.60;74.30
67974;DHT22;54756;51.140;6.952;2022-12-18T03:33:52;-5.70;74.50
67974;DHT22;54756;51.140;6.952;2022-12-18T03:35:53;-5.70;75.40
67974;DHT22;54756;51.140;6.952;2022-12-18T03:37:54;-5.80;75.80
67974;DHT22;54756;51.140;6.952;2022-12-18T03:39:54;-5.80;75.80
67974;DHT22;54756;51.140;6.952;2022-12-18T03:42:03;-5.90;75.70
67974;DHT22;54756;51.140;6.952;2022-12-18T03:44:21;-6.00;75.80
67974;DHT22;54756;51.140;6.952;2022-12-18T03:46:32;-6.00;75.80
67974;DHT22;54756;51.140;6.952;2022-12-18T03:48:41;-6.10;75.70
67974;DHT22;54756;51.140;6.952;2022-12-18T03:50:52;-6.20;75.60
67974;DHT22;54756;51.140;6.952;2022-12-18T03:53:13;-6.20;76.40
67974;DHT22;54756;51.140;6.952;2022-12-18T03:55:17;-6.30;76.00
67974;DHT22;54756;51.140;6.952;2022-12-18T03:57:21;-6.30;76.20
67974;DHT22;54756;51.140;6.952;2022-12-18T03:59:24;-6.30;76.60
67974;DHT22;54756;51.140;6.952;2022-12-18T04:01:36;-6.40;76.60
67974;DHT22;54756;51.140;6.952;2022-12-18T04:03:39;-6.40;76.60
67974;DHT22;54756;51.140;6.952;2022-12-18T04:05:41;-6.50;76.50
67974;DHT22;54756;51.140;6.952;2022-12-18T04:07:43;-6.50;76.70
67974;DHT22;54756;51.140;6.952;2022-12-18T04:09:45;-6.60;76.70
67974;DHT22;54756;51.140;6.952;2022-12-18T04:11:47;-6.60;76.90
67974;DHT22;54756;51.140;6.952;2022-12-18T04:13:48;-6.60;77.20
67974;DHT22;54756;51.140;6.952;2022-12-18T04:15:48;-6.60;77.40
67974;DHT22;54756;51.140;6.952;2022-12-18T04:17:50;-6.60;77.40
67974;DHT22;54756;51.140;6.952;2022-12-18T04:19:50;-6.70;77.20
67974;DHT22;54756;51.140;6.952;2022-12-18T04:21:51;-6.70;77.30
67974;DHT22;54756;51.140;6.952;2022-12-18T04:23:51;-6.70;77.40
67974;DHT22;54756;51.140;6.952;2022-12-18T04:25:52;-6.80;77.30
67974;DHT22;54756;51.140;6.952;2022-12-18T04:27:53;-6.80;78.00
67974;DHT22;54756;51.140;6.952;2022-12-18T04:29:53;-6.80;77.30
67974;DHT22;54756;51.140;6.952;2022-12-18T04:31:54;-6.80;77.30
67974;DHT22;54756;51.140;6.952;2022-12-18T04:33:54;-6.90;77.40
67974;DHT22;54756;51.140;6.952;2022-12-18T04:35:55;-6.90;77.50
67974;DHT22;54756;51.140;6.952;2022-12-18T04:37:55;-6.90;77.50
67974;DHT22;54756;51.140;6.952;2022-12-18T04:39:56;-7.00;77.50
67974;DHT22;54756;51.140;6.952;2022-12-18T04:41:56;-6.90;78.00
67974;DHT22;54756;51.140;6.952;2022-12-18T04:44:00;-7.00;77.90
67974;DHT22;54756;51.140;6.952;2022-12-18T04:46:05;-7.00;78.00
67974;DHT22;54756;51.140;6.952;2022-12-18T04:48:06;-7.00;78.00
67974;DHT22;54756;51.140;6.952;2022-12-18T04:50:07;-7.00;78.20
67974;DHT22;54756;51.140;6.952;2022-12-18T04:52:08;-7.00;78.60
67974;DHT22;54756;51.140;6.952;2022-12-18T04:54:08;-7.00;79.00
67974;DHT22;54756;51.140;6.952;2022-12-18T04:56:14;-7.00;79.30
67974;DHT22;54756;51.140;6.952;2022-12-18T04:58:15;-6.90;80.10
67974;DHT22;54756;51.140;6.952;2022-12-18T05:00:16;-6.90;80.30
67974;DHT22;54756;51.140;6.952;2022-12-18T05:02:16;-6.90;81.00
67974;DHT22;54756;51.140;6.952;2022-12-18T05:04:17;-6.80;81.60
67974;DHT22;54756;51.140;6.952;2022-12-18T05:06:17;-6.80;81.90
67974;DHT22;54756;51.140;6.952;2022-12-18T05:08:18;-6.70;82.20
67974;DHT22;54756;51.140;6.952;2022-12-18T05:10:19;-6.70;82.20
67974;DHT22;54756;51.140;6.952;2022-12-18T05:12:19;-6.70;82.10
67974;DHT22;54756;51.140;6.952;2022-12-18T05:14:20;-6.70;82.10
67974;DHT22;54756;51.140;6.952;2022-12-18T05:16:20;-6.70;82.10
67974;DHT22;54756;51.140;6.952;2022-12-18T05:18:25;-6.70;82.10
67974;DHT22;54756;51.140;6.952;2022-12-18T05:20:26;-6.70;82.00
67974;DHT22;54756;51.140;6.952;2022-12-18T05:22:27;-6.70;81.90
67974;DHT22;54756;51.140;6.952;2022-12-18T05:24:27;-6.70;81.90
67974;DHT22;54756;51.140;6.952;2022-12-18T05:26:28;-6.70;81.60
67974;DHT22;54756;51.140;6.952;2022-12-18T05:28:30;-6.80;81.00
67974;DHT22;54756;51.140;6.952;2022-12-18T05:30:30;-6.90;80.30
67974;DHT22;54756;51.140;6.952;2022-12-18T05:32:31;-6.90;80.00
67974;DHT22;54756;51.140;6.952;2022-12-18T05:34:31;-6.90;80.00
67974;DHT22;54756;51.140;6.952;2022-12-18T05:36:33;-6.90;80.30
67974;DHT22;54756;51.140;6.952;2022-12-18T05:38:37;-6.90;80.70
67974;DHT22;54756;51.140;6.952;2022-12-18T05:40:41;-6.90;80.90
67974;DHT22;54756;51.140;6.952;2022-12-18T05:42:43;-6.90;81.30
67974;DHT22;54756;51.140;6.952;2022-12-18T05:44:43;-6.90;81.20
67974;DHT22;54756;51.140;6.952;2022-12-18T05:46:44;-7.00;80.80
67974;DHT22;54756;51.140;6.952;2022-12-18T05:48:45;-7.00;80.60
67974;DHT22;54756;51.140;6.952;2022-12-18T05:50:47;-7.00;80.70
67974;DHT22;54756;51.140;6.952;2022-12-18T05:52:48;-7.00;80.60
67974;DHT22;54756;51.140;6.952;2022-12-18T05:54:48;-7.00;80.20
67974;DHT22;54756;51.140;6.952;2022-12-18T05:56:49;-7.10;80.10
67974;DHT22;54756;51.140;6.952;2022-12-18T05:58:53;-7.10;80.10
67974;DHT22;54756;51.140;6.952;2022-12-18T06:00:54;-7.00;80.80
67974;DHT22;54756;51.140;6.952;2022-12-18T06:02:55;-7.00;81.10
67974;DHT22;54756;51.140;6.952;2022-12-18T06:04:55;-7.00;81.30
67974;DHT22;54756;51.140;6.952;2022-12-18T06:06:56;-7.00;81.50
67974;DHT22;54756;51.140;6.952;2022-12-18T06:08:56;-7.00;81.40
67974;DHT22;54756;51.140;6.952;2022-12-18T06:10:57;-7.00;81.30
67974;DHT22;54756;51.140;6.952;2022-12-18T06:12:57;-7.10;81.00
67974;DHT22;54756;51.140;6.952;2022-12-18T06:14:58;-7.10;81.00
67974;DHT22;54756;51.140;6.952;2022-12-18T06:16:59;-7.10;81.10
67974;DHT22;54756;51.140;6.952;2022-12-18T06:19:02;-7.10;81.10
67974;DHT22;54756;51.140;6.952;2022-12-18T06:21:03;-7.10;81.40
67974;DHT22;54756;51.140;6.952;2022-12-18T06:23:03;-7.10;81.60
67974;DHT22;54756;51.140;6.952;2022-12-18T06:25:04;-7.10;81.70
67974;DHT22;54756;51.140;6.952;2022-12-18T06:27:06;-7.00;81.80
67974;DHT22;54756;51.140;6.952;2022-12-18T06:29:06;-7.10;81.60
67974;DHT22;54756;51.140;6.952;2022-12-18T06:31:07;-7.10;81.60
67974;DHT22;54756;51.140;6.952;2022-12-18T06:33:08;-7.10;81.50
67974;DHT22;54756;51.140;6.952;2022-12-18T06:35:09;-7.10;81.50
67974;DHT22;54756;51.140;6.952;2022-12-18T06:37:09;-7.10;81.60
67974;DHT22;54756;51.140;6.952;2022-12-18T06:39:10;-7.00;81.90
67974;DHT22;54756;51.140;6.952;2022-12-18T06:41:18;-7.00;82.10
67974;DHT22;54756;51.140;6.952;2022-12-18T06:43:19;-7.00;82.40
67974;DHT22;54756;51.140;6.952;2022-12-18T06:45:20;-6.90;82.80
67974;DHT22;54756;51.140;6.952;2022-12-18T06:47:20;-6.90;83.30
67974;DHT22;54756;51.140;6.952;2022-12-18T06:49:21;-6.90;83.30
67974;DHT22;54756;51.140;6.952;2022-12-18T06:51:23;-6.80;83.30
67974;DHT22;54756;51.140;6.952;2022-12-18T06:53:24;-6.80;83.30
67974;DHT22;54756;51.140;6.952;2022-12-18T06:55:24;-6.80;83.40
67974;DHT22;54756;51.140;6.952;2022-12-18T06:57:25;-6.80;83.40
67974;DHT22;54756;51.140;6.952;2022-12-18T06:59:25;-6.80;83.50
67974;DHT22;54756;51.140;6.952;2022-12-18T07:01:26;-6.80;83.50
67974;DHT22;54756;51.140;6.952;2022-12-18T07:03:27;-6.80;83.50
67974;DHT22;54756;51.140;6.952;2022-12-18T07:05:27;-6.80;83.50
67974;DHT22;54756;51.140;6.952;2022-12-18T07:07:28;-6.80;83.60
67974;DHT22;54756;51.140;6.952;2022-12-18T07:09:28;-6.70;83.70
67974;DHT22;54756;51.140;6.952;2022-12-18T07:11:29;-6.70;83.80
67974;DHT22;54756;51.140;6.952;2022-12-18T07:13:29;-6.70;83.90
67974;DHT22;54756;51.140;6.952;2022-12-18T07:15:30;-6.70;84.00
67974;DHT22;54756;51.140;6.952;2022-12-18T07:17:30;-6.70;84.20
67974;DHT22;54756;51.140;6.952;2022-12-18T07:19:31;-6.60;84.40
67974;DHT22;54756;51.140;6.952;2022-12-18T07:21:31;-6.60;84.50
67974;DHT22;54756;51.140;6.952;2022-12-18T07:23:33;-6.60;84.60
67974;DHT22;54756;51.140;6.952;2022-12-18T07:25:35;-6.60;84.60
67974;DHT22;54756;51.140;6.952;2022-12-18T07:27:35;-6.60;84.40
67974;DHT22;54756;51.140;6.952;2022-12-18T07:29:36;-6.60;84.30
67974;DHT22;54756;51.140;6.952;2022-12-18T07:31:36;-6.50;84.40
67974;DHT22;54756;51.140;6.952;2022-12-18T07:33:37;-6.60;84.10
67974;DHT22;54756;51.140;6.952;2022-12-18T07:35:38;-6.60;84.00
67974;DHT22;54756;51.140;6.952;2022-12-18T07:37:39;-6.50;84.00
67974;DHT22;54756;51.140;6.952;2022-12-18T07:39:39;-6.50;84.10
67974;DHT22;54756;51.140;6.952;2022-12-18T07:41:40;-6.50;84.80
67974;DHT22;54756;51.140;6.952;2022-12-18T07:43:46;-6.50;84.00
67974;DHT22;54756;51.140;6.952;2022-12-18T07:45:49;-6.50;84.50
67974;DHT22;54756;51.140;6.952;2022-12-18T07:47:50;-6.50;84.10
67974;DHT22;54756;51.140;6.952;2022-12-18T07:49:51;-6.40;84.20
67974;DHT22;54756;51.140;6.952;2022-12-18T07:51:56;-6.40;84.20
67974;DHT22;54756;51.140;6.952;2022-12-18T07:53:57;-6.40;84.20
67974;DHT22;54756;51.140;6.952;2022-12-18T07:56:00;-6.30;84.30
67974;DHT22;54756;51.140;6.952;2022-12-18T07:58:02;-6.30;84.30
67974;DHT22;54756;51.140;6.952;2022-12-18T08:00:03;-6.30;84.30
67974;DHT22;54756;51.140;6.952;2022-12-18T08:02:04;-6.20;84.30
67974;DHT22;54756;51.140;6.952;2022-12-18T08:04:04;-6.20;84.10
67974;DHT22;54756;51.140;6.952;2022-12-18T08:06:07;-6.20;84.00
67974;DHT22;54756;51.140;6.952;2022-12-18T08:08:08;-6.10;83.90
67974;DHT22;54756;51.140;6.952;2022-12-18T08:10:08;-6.10;83.80
67974;DHT22;54756;51.140;6.952;2022-12-18T08:12:09;-6.10;83.80
67974;DHT22;54756;51.140;6.952;2022-12-18T08:14:10;-6.00;83.90
67974;DHT22;54756;51.140;6.952;2022-12-18T08:16:10;-6.00;83.90
67974;DHT22;54756;51.140;6.952;2022-12-18T08:18:11;-5.90;84.10
67974;DHT22;54756;51.140;6.952;2022-12-18T08:20:11;-5.80;84.00
67974;DHT22;54756;51.140;6.952;2022-12-18T08:22:14;-5.70;83.90
67974;DHT22;54756;51.140;6.952;2022-12-18T08:24:14;-5.70;83.70
67974;DHT22;54756;51.140;6.952;2022-12-18T08:26:15;-5.60;84.50
67974;DHT22;54756;51.140;6.952;2022-12-18T08:28:16;-5.60;83.50
67974;DHT22;54756;51.140;6.952;2022-12-18T08:30:16;-5.50;83.50
67974;DHT22;54756;51.140;6.952;2022-12-18T08:32:17;-5.40;83.50
67974;DHT22;54756;51.140;6.952;2022-12-18T08:34:17;-5.30;83.60
67974;DHT22;54756;51.140;6.952;2022-12-18T08:36:18;-5.20;83.70
67974;DHT22;54756;51.140;6.952;2022-12-18T08:38:19;-5.10;83.50
67974;DHT22;54756;51.140;6.952;2022-12-18T08:40:20;-5.00;83.30
67974;DHT22;54756;51.140;6.952;2022-12-18T08:42:20;-4.90;83.00
67974;DHT22;54756;51.140;6.952;2022-12-18T08:44:39;-4.90;82.70
67974;DHT22;54756;51.140;6.952;2022-12-18T08:46:42;-4.80;83.00
67974;DHT22;54756;51.140;6.952;2022-12-18T08:48:43;-4.70;81.70
67974;DHT22;54756;51.140;6.952;2022-12-18T08:50:56;-4.60;81.50
67974;DHT22;54756;51.140;6.952;2022-12-18T08:52:57;-4.50;82.10
67974;DHT22;54756;51.140;6.952;2022-12-18T08:54:58;-4.50;81.10
67974;DHT22;54756;51.140;6.952;2022-12-18T08:56:58;-4.40;80.90
67974;DHT22;54756;51.140;6.952;2022-12-18T08:58:59;-4.30;80.90
67974;DHT22;54756;51.140;6.952;2022-12-18T09:01:04;-4.20;80.70
67974;DHT22;54756;51.140;6.952;2022-12-18T09:03:04;-4.10;80.70
67974;DHT22;54756;51.140;6.952;2022-12-18T09:05:05;-4.00;80.60
67974;DHT22;54756;51.140;6.952;2022-12-18T09:07:06;-3.90;80.10
67974;DHT22;54756;51.140;6.952;2022-12-18T09:09:07;-3.80;79.90
67974;DHT22;54756;51.140;6.952;2022-12-18T09:11:18;-3.70;79.10
67974;DHT22;54756;51.140;6.952;2022-12-18T09:13:19;-3.60;78.30
67974;DHT22;54756;51.140;6.952;2022-12-18T09:15:19;-3.60;77.50
67974;DHT22;54756;51.140;6.952;2022-12-18T09:17:20;-3.50;77.30
67974;DHT22;54756;51.140;6.952;2022-12-18T09:19:21;-3.40;76.90
67974;DHT22;54756;51.140;6.952;2022-12-18T09:21:21;-3.40;76.70
67974;DHT22;54756;51.140;6.952;2022-12-18T09:23:22;-3.30;76.40
67974;DHT22;54756;51.140;6.952;2022-12-18T09:25:23;-3.30;75.30
67974;DHT22;54756;51.140;6.952;2022-12-18T09:27:23;-3.20;75.50
67974;DHT22;54756;51.140;6.952;2022-12-18T09:29:24;-3.10;75.70
67974;DHT22;54756;51.140;6.952;2022-12-18T09:31:24;-3.00;74.80
67974;DHT22;54756;51.140;6.952;2022-12-18T09:33:25;-2.90;73.80
67974;DHT22;54756;51.140;6.952;2022-12-18T09:35:26;-2.80;73.20
67974;DHT22;54756;51.140;6.952;2022-12-18T09:37:28;-2.70;73.10
67974;DHT22;54756;51.140;6.952;2022-12-18T09:39:28;-2.60;72.90
67974;DHT22;54756;51.140;6.952;2022-12-18T09:41:52;-2.40;73.80
67974;DHT22;54756;51.140;6.952;2022-12-18T09:44:05;-2.30;72.50
67974;DHT22;54756;51.140;6.952;2022-12-18T09:46:19;-2.20;72.40
67974;DHT22;54756;51.140;6.952;2022-12-18T09:48:25;-2.00;72.60
67974;DHT22;54756;51.140;6.952;2022-12-18T09:50:38;-1.90;72.00
67974;DHT22;54756;51.140;6.952;2022-12-18T09:52:44;-1.80;71.20
67974;DHT22;54756;51.140;6.952;2022-12-18T09:54:53;-1.70;69.80
67974;DHT22;54756;51.140;6.952;2022-12-18T09:56:55;-1.60;69.00
67974;DHT22;54756;51.140;6.952;2022-12-18T09:58:59;-1.40;67.40
67974;DHT22;54756;51.140;6.952;2022-12-18T10:01:00;-1.30;66.90
67974;DHT22;54756;51.140;6.952;2022-12-18T10:03:09;-1.20;64.70
67974;DHT22;54756;51.140;6.952;2022-12-18T10:05:16;-1.10;63.80
67974;DHT22;54756;51.140;6.952;2022-12-18T10:07:59;-1.00;60.20
67974;DHT22;54756;51.140;6.952;2022-12-18T10:16:00;-0.60;58.30
67974;DHT22;54756;51.140;6.952;2022-12-18T10:17:43;-0.50;57.90
67974;DHT22;54756;51.140;6.952;2022-12-18T10:19:59;-0.40;54.60
67974;DHT22;54756;51.140;6.952;2022-12-18T10:22:26;-0.30;53.70
67974;DHT22;54756;51.140;6.952;2022-12-18T10:24:33;-0.20;53.70
67974;DHT22;54756;51.140;6.952;2022-12-18T10:26:35;-0.10;52.60
67974;DHT22;54756;51.140;6.952;2022-12-18T10:28:37;0.00;50.90
67974;DHT22;54756;51.140;6.952;2022-12-18T10:30:40;0.10;48.90
67974;DHT22;54756;51.140;6.952;2022-12-18T10:32:42;0.20;48.30
67974;DHT22;54756;51.140;6.952;2022-12-18T10:34:45;0.20;48.20
67974;DHT22;54756;51.140;6.952;2022-12-18T10:36:47;0.30;48.00
67974;DHT22;54756;51.140;6.952;2022-12-18T10:38:48;0.40;49.20
67974;DHT22;54756;51.140;6.952;2022-12-18T10:40:50;0.50;46.50
67974;DHT22;54756;51.140;6.952;2022-12-18T10:43:13;0.60;47.40
67974;DHT22;54756;51.140;6.952;2022-12-18T10:45:16;0.70;45.40
67974;DHT22;54756;51.140;6.952;2022-12-18T10:47:18;0.80;43.10
67974;DHT22;54756;51.140;6.952;2022-12-18T10:49:28;0.80;42.10
67974;DHT22;54756;51.140;6.952;2022-12-18T10:51:30;0.90;40.60
67974;DHT22;54756;51.140;6.952;2022-12-18T10:53:33;0.90;39.90
67974;DHT22;54756;51.140;6.952;2022-12-18T10:55:37;1.00;37.20
67974;DHT22;54756;51.140;6.952;2022-12-18T10:57:39;1.10;39.00
67974;DHT22;54756;51.140;6.952;2022-12-18T10:59:56;1.10;38.50
67974;DHT22;54756;51.140;6.952;2022-12-18T11:01:57;1.20;38.60
67974;DHT22;54756;51.140;6.952;2022-12-18T11:04:01;1.30;34.80
67974;DHT22;54756;51.140;6.952;2022-12-18T11:06:13;1.40;36.70
67974;DHT22;54756;51.140;6.952;2022-12-18T11:08:20;1.50;35.70
67974;DHT22;54756;51.140;6.952;2022-12-18T11:10:28;1.50;32.90
67974;DHT22;54756;51.140;6.952;2022-12-18T11:12:30;1.60;33.50
67974;DHT22;54756;51.140;6.952;2022-12-18T11:14:34;1.60;29.60
67974;DHT22;54756;51.140;6.952;2022-12-18T11:16:46;1.60;31.70
67974;DHT22;54756;51.140;6.952;2022-12-18T11:18:48;1.70;29.30
67974;DHT22;54756;51.140;6.952;2022-12-18T11:20:53;1.70;31.10
67974;DHT22;54756;51.140;6.952;2022-12-18T11:23:00;1.80;30.00
67974;DHT22;54756;51.140;6.952;2022-12-18T11:27:17;1.80;29.60
67974;DHT22;54756;51.140;6.952;2022-12-18T11:29:31;1.90;29.80
67974;DHT22;54756;51.140;6.952;2022-12-18T11:31:32;1.90;29.50
67974;DHT22;54756;51.140;6.952;2022-12-18T11:33:33;2.00;30.20
67974;DHT22;54756;51.140;6.952;2022-12-18T11:37:43;2.10;27.50
67974;DHT22;54756;51.140;6.952;2022-12-18T11:39:51;2.10;25.90
67974;DHT22;54756;51.140;6.952;2022-12-18T11:44:26;2.00;26.00
67974;DHT22;54756;51.140;6.952;2022-12-18T11:46:33;2.00;27.10
67974;DHT22;54756;51.140;6.952;2022-12-18T11:48:45;2.00;27.00
67974;DHT22;54756;51.140;6.952;2022-12-18T11:50:58;1.90;27.80
67974;DHT22;54756;51.140;6.952;2022-12-18T11:53:00;1.90;27.30
67974;DHT22;54756;51.140;6.952;2022-12-18T11:55:10;1.90;27.40
67974;DHT22;54756;51.140;6.952;2022-12-18T11:57:16;1.90;27.50
67974;DHT22;54756;51.140;6.952;2022-12-18T12:01:50;1.80;29.50
67974;DHT22;54756;51.140;6.952;2022-12-18T12:18:18;1.70;29.50
67974;DHT22;54756;51.140;6.952;2022-12-18T12:20:45;1.70;29.40
67974;DHT22;54756;51.140;6.952;2022-12-18T12:25:18;1.60;28.90
67974;DHT22;54756;51.140;6.952;2022-12-18T12:30:16;1.50;30.70
67974;DHT22;54756;51.140;6.952;2022-12-18T12:32:34;1.50;29.70
67974;DHT22;54756;51.140;6.952;2022-12-18T12:37:20;1.40;29.50
67974;DHT22;54756;51.140;6.952;2022-12-18T12:39:30;1.40;29.60
67974;DHT22;54756;51.140;6.952;2022-12-18T12:41:33;1.30;30.00
67974;DHT22;54756;51.140;6.952;2022-12-18T12:43:56;1.20;29.50
67974;DHT22;54756;51.140;6.952;2022-12-18T12:46:07;1.20;30.60
67974;DHT22;54756;51.140;6.952;2022-12-18T12:50:32;1.10;32.60
67974;DHT22;54756;51.140;6.952;2022-12-18T12:52:40;1.10;31.60
67974;DHT22;54756;51.140;6.952;2022-12-18T12:54:43;1.00;32.50
67974;DHT22;54756;51.140;6.952;2022-12-18T12:56:45;1.00;33.40
67974;DHT22;54756;51.140;6.952;2022-12-18T12:59:27;0.90;34.30
67974;DHT22;54756;51.140;6.952;2022-12-18T13:01:36;0.90;34.20
67974;DHT22;54756;51.140;6.952;2022-12-18T13:03:45;1.00;33.60
67974;DHT22;54756;51.140;6.952;2022-12-18T13:05:54;1.00;33.60
67974;DHT22;54756;51.140;6.952;2022-12-18T13:08:06;1.00;34.70
67974;DHT22;54756;51.140;6.952;2022-12-18T13:12:16;1.10;32.90
67974;DHT22;54756;51.140;6.952;2022-12-18T13:14:40;1.10;32.30
67974;DHT22;54756;51.140;6.952;2022-12-18T13:16:41;1.10;32.50
67974;DHT22;54756;51.140;6.952;2022-12-18T13:18:51;1.20;32.50
67974;DHT22;54756;51.140;6.952;2022-12-18T13:22:59;1.20;30.20
67974;DHT22;54756;51.140;6.952;2022-12-18T13:24:59;1.10;30.20
67974;DHT22;54756;51.140;6.952;2022-12-18T13:29:48;1.00;30.50
67974;DHT22;54756;51.140;6.952;2022-12-18T13:31:57;1.00;30.90
67974;DHT22;54756;51.140;6.952;2022-12-18T13:34:22;1.00;31.80
67974;DHT22;54756;51.140;6.952;2022-12-18T13:36:26;0.90;32.40
67974;DHT22;54756;51.140;6.952;2022-12-18T13:38:37;0.90;33.30
67974;DHT22;54756;51.140;6.952;2022-12-18T13:42:45;0.90;34.50
67974;DHT22;54756;51.140;6.952;2022-12-18T13:45:40;0.80;34.00
67974;DHT22;54756;51.140;6.952;2022-12-18T13:47:43;0.80;34.10
67974;DHT22;54756;51.140;6.952;2022-12-18T13:49:44;0.70;34.20
67974;DHT22;54756;51.140;6.952;2022-12-18T13:51:48;0.70;33.50
67974;DHT22;54756;51.140;6.952;2022-12-18T13:53:52;0.70;34.20
67974;DHT22;54756;51.140;6.952;2022-12-18T13:55:54;0.60;33.40
67974;DHT22;54756;51.140;6.952;2022-12-18T13:58:05;0.60;33.80
67974;DHT22;54756;51.140;6.952;2022-12-18T14:02:26;0.60;35.00
67974;DHT22;54756;51.140;6.952;2022-12-18T14:04:32;0.50;34.80
67974;DHT22;54756;51.140;6.952;2022-12-18T14:06:34;0.50;35.20
67974;DHT22;54756;51.140;6.952;2022-12-18T14:08:39;0.50;36.50
67974;DHT22;54756;51.140;6.952;2022-12-18T14:10:46;0.50;37.00
67974;DHT22;54756;51.140;6.952;2022-12-18T14:12:48;0.50;37.10
67974;DHT22;54756;51.140;6.952;2022-12-18T14:14:59;0.40;36.80
67974;DHT22;54756;51.140;6.952;2022-12-18T14:17:00;0.40;37.80
67974;DHT22;54756;51.140;6.952;2022-12-18T14:19:01;0.40;38.70
67974;DHT22;54756;51.140;6.952;2022-12-18T14:21:03;0.40;38.40
67974;DHT22;54756;51.140;6.952;2022-12-18T14:23:04;0.30;38.40